Nimbus Weather Services

Informe meteorológico para Carrasco, Uruguay. El informe se hizo hace 9 minutos, a las 18:00 UTC. El viento soplaba a una velocidad de 5.7 m/s (12.7 millas por hora) del noreste (050°). La temperatura era 24 °C (75 °F), con un punto de rocío de 9 °C (48 °F). La sensación térmica era de 25 °C (77 °F). La presión atmosférica era 1017 hPa (30.03 inHg). Había una humedad relativa del 38.5%. Cielo: sin nubes por debajo de 1500 metros (5000 pies) y sin presencia de cumulusnimbos. En aquel momento la visibilidad global era mayor de 10 kilómetros (6.2 millas).

La clave METAR es: SUMU 141800Z 05011KT CAVOK 24/09 Q1017 NOSIG

Consulta realizada el Miércoles 14 de Abril de 2021 15:08. Tiempo usado para generar esta pagina:16,763 ms.